createdAt,value
2023-03-12T00:00:28.375Z,2.00
2023-03-12T00:02:55.927Z,2.58
2023-03-12T00:05:23.081Z,2.17
2023-03-12T00:07:50.399Z,1.65
2023-03-12T00:10:17.700Z,2.40
2023-03-12T00:12:44.841Z,2.13
2023-03-12T00:15:11.840Z,2.00
2023-03-12T00:17:38.909Z,3.30
2023-03-12T00:20:07.252Z,1.92
2023-03-12T00:22:34.673Z,1.98
2023-03-12T00:25:01.945Z,2.58
2023-03-12T00:27:29.061Z,2.47
2023-03-12T00:29:56.228Z,2.15
2023-03-12T00:32:25.879Z,2.03
2023-03-12T00:34:53.689Z,2.22
2023-03-12T00:37:20.750Z,2.35
2023-03-12T00:39:47.797Z,2.70
2023-03-12T00:42:14.934Z,2.30
2023-03-12T00:44:44.350Z,2.55
2023-03-12T00:47:11.712Z,2.83
2023-03-12T00:49:38.999Z,3.08
2023-03-12T00:52:08.503Z,2.78
2023-03-12T00:54:35.590Z,3.42
2023-03-12T00:57:02.651Z,3.40
2023-03-12T00:59:30.807Z,3.53
2023-03-12T01:02:00.210Z,2.67
2023-03-12T01:04:27.568Z,2.60
2023-03-12T01:06:55.624Z,3.20
2023-03-12T01:09:22.701Z,3.22
2023-03-12T01:11:49.660Z,3.03
2023-03-12T01:14:19.255Z,2.88
2023-03-12T01:16:52.699Z,3.00
2023-03-12T01:19:22.256Z,3.60
2023-03-12T01:21:50.443Z,3.58
2023-03-12T01:24:17.882Z,3.90
2023-03-12T01:26:44.855Z,3.25
2023-03-12T01:29:11.795Z,3.20
2023-03-12T01:31:38.948Z,3.35
2023-03-12T01:34:06.065Z,3.88
2023-03-12T01:36:33.245Z,4.07
2023-03-12T01:39:00.341Z,2.92
2023-03-12T01:41:28.345Z,2.55
2023-03-12T01:43:55.524Z,2.20
2023-03-12T01:46:43.388Z,2.40
2023-03-12T01:49:22.828Z,2.08
2023-03-12T01:52:09.153Z,2.17
2023-03-12T01:54:48.498Z,1.92
2023-03-12T01:57:17.532Z,1.83
2023-03-12T01:59:52.432Z,2.03
2023-03-12T02:02:23.657Z,2.13
2023-03-12T02:04:50.601Z,2.00
2023-03-12T02:07:20.311Z,2.00
2023-03-12T02:09:48.917Z,2.80
2023-03-12T02:12:16.815Z,2.13
2023-03-12T02:14:43.857Z,1.92
2023-03-12T02:17:10.985Z,2.83
2023-03-12T02:19:46.842Z,2.25
2023-03-12T02:22:13.870Z,1.75
2023-03-12T02:25:04.063Z,2.58
2023-03-12T02:27:34.468Z,1.95
2023-03-12T02:30:04.318Z,1.70
2023-03-12T02:32:35.478Z,1.55
2023-03-12T02:35:02.839Z,2.53
2023-03-12T02:37:29.848Z,2.60
2023-03-12T02:40:01.045Z,1.83
2023-03-12T02:42:28.251Z,1.50
2023-03-12T02:44:55.435Z,1.92
2023-03-12T02:47:22.634Z,2.20
2023-03-12T02:49:49.584Z,2.17
2023-03-12T02:52:19.118Z,1.63
2023-03-12T02:54:46.258Z,2.15
2023-03-12T02:57:13.197Z,2.08
2023-03-12T02:59:43.120Z,1.50
2023-03-12T03:02:12.630Z,2.10
2023-03-12T03:04:39.713Z,1.30
2023-03-12T03:07:06.653Z,2.30
2023-03-12T03:09:33.960Z,1.50
2023-03-12T03:12:03.515Z,1.48
2023-03-12T03:14:30.423Z,2.03
2023-03-12T03:16:59.958Z,1.63
2023-03-12T03:19:26.884Z,2.30
2023-03-12T03:21:56.401Z,1.90
2023-03-12T03:24:23.350Z,1.80
2023-03-12T03:26:50.486Z,2.78
2023-03-12T03:29:17.681Z,1.85
2023-03-12T03:31:44.635Z,2.20
2023-03-12T03:34:12.645Z,1.75
2023-03-12T03:36:42.097Z,2.65
2023-03-12T03:39:09.082Z,1.65
2023-03-12T03:41:36.052Z,2.25
2023-03-12T03:44:03.261Z,1.63
2023-03-12T03:46:30.355Z,2.15
2023-03-12T03:48:59.082Z,2.47
2023-03-12T03:51:26.040Z,1.80
2023-03-12T03:53:53.039Z,1.50
2023-03-12T03:56:20.091Z,1.83
2023-03-12T03:58:47.089Z,2.13
2023-03-12T04:01:14.832Z,2.00
2023-03-12T04:03:41.893Z,1.30
2023-03-12T04:06:08.878Z,1.88
2023-03-12T04:08:41.235Z,1.70
2023-03-12T04:11:15.260Z,2.92
2023-03-12T04:13:42.579Z,1.73
2023-03-12T04:16:09.666Z,1.92
2023-03-12T04:18:36.883Z,1.58
2023-03-12T04:21:05.128Z,3.28
2023-03-12T04:23:32.326Z,1.35
2023-03-12T04:25:59.329Z,2.38
2023-03-12T04:28:26.487Z,2.00
2023-03-12T04:31:01.468Z,1.80
2023-03-12T04:33:33.271Z,2.28
2023-03-12T04:36:00.257Z,2.55
2023-03-12T04:38:27.478Z,2.33
2023-03-12T04:41:04.925Z,1.92
2023-03-12T04:43:32.198Z,2.05
2023-03-12T04:45:59.206Z,2.92
2023-03-12T04:48:26.305Z,2.60
2023-03-12T04:50:55.800Z,2.80
2023-03-12T04:53:22.782Z,2.47
2023-03-12T04:55:49.910Z,2.45
2023-03-12T04:58:17.286Z,2.63
2023-03-12T05:00:46.759Z,2.55
2023-03-12T05:03:13.962Z,2.75
2023-03-12T05:05:45.785Z,2.38
2023-03-12T05:08:12.766Z,3.25
2023-03-12T05:10:39.950Z,3.58
2023-03-12T05:13:17.632Z,2.70
2023-03-12T05:15:44.658Z,2.80
2023-03-12T05:18:11.674Z,2.75
2023-03-12T05:20:38.671Z,2.80
2023-03-12T05:23:05.752Z,3.20
2023-03-12T05:25:32.705Z,4.80
2023-03-12T05:27:59.765Z,3.22
2023-03-12T05:30:26.926Z,4.22
2023-03-12T05:32:54.076Z,2.55
2023-03-12T05:35:21.268Z,3.67
2023-03-12T05:37:48.246Z,2.83
2023-03-12T05:40:17.743Z,2.38
2023-03-12T05:42:44.725Z,3.00
2023-03-12T05:45:11.845Z,2.35
2023-03-12T05:47:38.796Z,2.30
2023-03-12T05:50:09.647Z,3.17
2023-03-12T05:52:36.629Z,3.88
2023-03-12T05:55:03.851Z,2.72
2023-03-12T05:57:30.766Z,2.28
2023-03-12T06:00:00.223Z,2.95
2023-03-12T06:02:27.283Z,2.45
2023-03-12T06:04:58.601Z,4.05
2023-03-12T06:07:25.613Z,2.05
2023-03-12T06:09:52.645Z,3.55
2023-03-12T06:12:19.531Z,3.10
2023-03-12T06:14:46.471Z,2.92
2023-03-12T06:17:13.477Z,3.40
2023-03-12T06:19:40.835Z,3.58
2023-03-12T06:22:10.283Z,2.78
2023-03-12T06:24:38.422Z,3.05
2023-03-12T06:27:05.577Z,2.70
2023-03-12T06:29:32.610Z,2.63
2023-03-12T06:32:02.720Z,2.97
2023-03-12T06:34:32.033Z,2.42
2023-03-12T06:37:01.472Z,2.97
2023-03-12T06:39:30.282Z,2.65
2023-03-12T06:41:57.220Z,2.60
2023-03-12T06:44:24.150Z,3.58
2023-03-12T06:46:52.289Z,2.83
2023-03-12T06:49:26.847Z,2.33
2023-03-12T06:51:54.559Z,2.65
2023-03-12T06:54:21.557Z,2.42
2023-03-12T06:56:48.665Z,2.97
2023-03-12T06:59:15.680Z,3.15
2023-03-12T07:01:42.749Z,1.95
2023-03-12T07:04:12.670Z,2.90
2023-03-12T07:06:39.824Z,3.28
2023-03-12T07:09:07.388Z,2.17
2023-03-12T07:11:34.405Z,3.72
2023-03-12T07:14:01.787Z,2.85
2023-03-12T07:16:29.005Z,3.10
2023-03-12T07:18:56.302Z,2.67
2023-03-12T07:21:23.958Z,2.72
2023-03-12T07:23:51.138Z,2.50
2023-03-12T07:26:18.075Z,2.78
2023-03-12T07:28:45.222Z,2.67
2023-03-12T07:31:12.340Z,2.30
2023-03-12T07:33:39.449Z,2.33
2023-03-12T07:36:07.264Z,2.90
2023-03-12T07:38:36.779Z,4.25
2023-03-12T07:41:04.022Z,3.17
2023-03-12T07:43:31.096Z,3.33
2023-03-12T07:45:58.220Z,2.55
2023-03-12T07:48:25.380Z,4.18
2023-03-12T07:50:52.427Z,3.28
2023-03-12T07:53:22.030Z,2.97
2023-03-12T07:55:49.230Z,4.50
2023-03-12T07:58:17.007Z,3.00
2023-03-12T08:00:44.509Z,3.83
2023-03-12T08:03:12.053Z,3.63
2023-03-12T08:05:41.392Z,2.60
2023-03-12T08:08:08.870Z,3.08
2023-03-12T08:10:36.747Z,3.17
2023-03-12T08:13:03.777Z,2.95
2023-03-12T08:15:33.777Z,3.42
2023-03-12T08:18:01.580Z,3.67
2023-03-12T08:20:28.686Z,2.78
2023-03-12T08:22:55.795Z,2.67
2023-03-12T08:25:24.951Z,3.00
2023-03-12T08:27:52.181Z,3.47
2023-03-12T08:30:21.411Z,2.47
2023-03-12T08:32:48.509Z,2.22
2023-03-12T08:35:15.598Z,2.25
2023-03-12T08:37:42.601Z,3.28
2023-03-12T08:40:13.615Z,2.55
2023-03-12T08:42:44.009Z,2.50
2023-03-12T08:45:11.708Z,2.88
2023-03-12T08:47:41.866Z,2.50
2023-03-12T08:50:10.390Z,2.30
2023-03-12T08:52:37.560Z,2.55
2023-03-12T08:55:06.109Z,2.42
2023-03-12T08:57:33.084Z,2.45
2023-03-12T09:00:00.098Z,3.17
2023-03-12T09:02:27.409Z,3.35
2023-03-12T09:04:54.568Z,2.95
2023-03-12T09:07:22.858Z,2.88
2023-03-12T09:09:49.981Z,2.17
2023-03-12T09:12:17.153Z,2.08
2023-03-12T09:15:04.179Z,2.28
2023-03-12T09:17:32.008Z,2.03
2023-03-12T09:19:59.322Z,2.95
2023-03-12T09:22:26.506Z,2.67
2023-03-12T09:24:53.577Z,2.10
2023-03-12T09:27:20.586Z,2.83
2023-03-12T09:29:59.641Z,2.80
2023-03-12T09:32:38.641Z,2.78
2023-03-12T09:35:07.057Z,2.55
2023-03-12T09:37:34.494Z,2.75
2023-03-12T09:40:01.892Z,2.78
2023-03-12T09:42:47.415Z,3.17
2023-03-12T09:45:22.980Z,2.15
2023-03-12T09:47:53.847Z,2.10
2023-03-12T09:50:28.698Z,2.15
2023-03-12T09:53:06.560Z,3.33
2023-03-12T09:55:37.498Z,3.10
2023-03-12T09:58:04.590Z,2.47
2023-03-12T10:00:34.536Z,2.70
2023-03-12T10:03:23.721Z,2.45
2023-03-12T10:06:13.185Z,3.22
2023-03-12T10:08:56.594Z,3.72
2023-03-12T10:11:50.188Z,2.97
2023-03-12T10:14:56.678Z,1.50
2023-03-12T10:17:48.025Z,2.47
2023-03-12T10:20:30.211Z,2.53
2023-03-12T10:23:10.947Z,2.92
2023-03-12T10:26:18.845Z,3.33
2023-03-12T10:28:51.390Z,2.80
2023-03-12T10:31:35.462Z,2.67
2023-03-12T10:34:03.574Z,2.53
2023-03-12T10:36:38.570Z,3.42
2023-03-12T10:39:10.284Z,2.13
2023-03-12T10:41:48.911Z,1.70
2023-03-12T10:44:23.616Z,2.55
2023-03-12T10:47:01.318Z,1.45
2023-03-12T10:49:36.262Z,2.35
2023-03-12T10:52:13.193Z,2.08
2023-03-12T10:54:40.997Z,3.55
2023-03-12T10:57:08.421Z,2.15
2023-03-12T10:59:46.310Z,2.42
2023-03-12T11:02:36.484Z,2.95
2023-03-12T11:05:03.990Z,2.08
2023-03-12T11:07:41.194Z,2.65
2023-03-12T11:10:13.130Z,2.50
2023-03-12T11:13:00.275Z,3.43
2023-03-12T11:15:51.397Z,2.35
2023-03-12T11:18:34.440Z,2.75
2023-03-12T11:21:10.521Z,2.30
2023-03-12T11:23:46.373Z,3.13
2023-03-12T11:26:21.243Z,1.70
2023-03-12T11:28:56.126Z,2.03
2023-03-12T11:31:39.562Z,2.08
2023-03-12T11:34:53.009Z,1.80
2023-03-12T11:37:59.884Z,2.38
2023-03-12T11:40:29.637Z,2.03
2023-03-12T11:43:11.541Z,3.30
2023-03-12T11:46:21.893Z,2.45
2023-03-12T11:49:20.688Z,2.03
2023-03-12T11:51:54.235Z,1.80
2023-03-12T11:54:42.276Z,3.08
2023-03-12T11:57:27.172Z,2.10
2023-03-12T12:00:12.786Z,1.95
2023-03-12T12:03:06.147Z,1.60
2023-03-12T12:05:48.058Z,2.72
2023-03-12T12:08:36.314Z,2.40
2023-03-12T12:11:24.462Z,2.42
2023-03-12T12:14:06.060Z,2.60
2023-03-12T12:17:14.403Z,2.40
2023-03-12T12:20:10.574Z,2.35
2023-03-12T12:23:05.847Z,2.50
2023-03-12T12:25:44.822Z,2.28
2023-03-12T12:28:45.277Z,2.60
2023-03-12T12:31:33.862Z,1.80
2023-03-12T12:34:07.764Z,2.25
2023-03-12T12:36:35.422Z,2.15
2023-03-12T12:39:19.424Z,1.88
2023-03-12T12:41:53.504Z,2.28
2023-03-12T12:44:32.286Z,2.58
2023-03-12T12:47:01.469Z,2.53
2023-03-12T12:49:36.101Z,3.28
2023-03-12T12:52:05.473Z,2.45
2023-03-12T12:54:54.062Z,2.40
2023-03-12T12:57:36.674Z,2.70
2023-03-12T13:00:33.436Z,2.67
2023-03-12T13:03:00.730Z,2.33
2023-03-12T13:05:37.306Z,2.63
2023-03-12T13:08:05.283Z,2.00
2023-03-12T13:10:35.362Z,1.88
2023-03-12T13:13:14.377Z,2.33
2023-03-12T13:15:43.786Z,2.15
2023-03-12T13:18:24.011Z,2.28
2023-03-12T13:20:53.979Z,1.77
2023-03-12T13:23:31.414Z,2.65
2023-03-12T13:26:27.978Z,2.42
2023-03-12T13:29:11.869Z,2.63
2023-03-12T13:32:00.656Z,2.65
2023-03-12T13:34:28.272Z,2.38
2023-03-12T13:37:00.502Z,2.35
2023-03-12T13:39:34.965Z,2.97
2023-03-12T13:42:47.692Z,2.70
2023-03-12T13:45:31.845Z,2.30
2023-03-12T13:48:06.368Z,3.08
2023-03-12T13:50:39.703Z,2.17
2023-03-12T13:53:10.155Z,1.83
2023-03-12T13:55:37.701Z,2.47
2023-03-12T13:58:13.752Z,1.35
2023-03-12T14:00:46.300Z,2.08
2023-03-12T14:03:49.820Z,1.77
2023-03-12T14:06:24.404Z,1.25
2023-03-12T14:09:26.263Z,1.83
2023-03-12T14:12:02.459Z,1.05
2023-03-12T14:14:53.641Z,1.65
2023-03-12T14:17:29.651Z,1.17
2023-03-12T14:20:02.162Z,1.67
2023-03-12T14:22:31.010Z,1.00
2023-03-12T14:25:04.313Z,0.95
2023-03-12T14:27:32.902Z,1.13
2023-03-12T14:30:16.790Z,1.33
2023-03-12T14:32:44.055Z,1.00
2023-03-12T14:35:26.032Z,1.15
2023-03-12T14:38:28.274Z,1.35
2023-03-12T14:41:07.141Z,1.15
2023-03-12T14:43:35.239Z,2.47
2023-03-12T14:46:05.280Z,1.58
2023-03-12T14:48:38.530Z,1.55
2023-03-12T14:51:24.044Z,1.45
2023-03-12T14:53:54.180Z,2.15
2023-03-12T14:56:32.998Z,1.42
2023-03-12T14:59:07.388Z,1.25
2023-03-12T15:01:42.403Z,1.10
2023-03-12T15:04:19.869Z,1.65
2023-03-12T15:07:16.721Z,2.10
2023-03-12T15:09:57.025Z,2.25
2023-03-12T15:12:45.548Z,1.88
2023-03-12T15:15:44.224Z,2.42
2023-03-12T15:18:18.737Z,1.90
2023-03-12T15:20:49.116Z,2.53
2023-03-12T15:27:36.445Z,1.70
2023-03-12T15:30:40.696Z,1.85
2023-03-12T15:33:15.691Z,1.15
2023-03-12T15:35:57.478Z,1.52
2023-03-12T15:38:27.176Z,2.33
2023-03-12T15:41:00.459Z,1.33
2023-03-12T15:43:33.057Z,1.05
2023-03-12T15:46:12.543Z,1.02
2023-03-12T15:48:42.600Z,1.42
2023-03-12T15:51:28.293Z,1.17
2023-03-12T15:54:25.351Z,1.00
2023-03-12T15:56:52.902Z,0.90
2023-03-12T15:59:29.725Z,0.98
2023-03-12T16:04:37.984Z,1.20
2023-03-12T16:07:12.076Z,1.65
2023-03-12T16:09:45.189Z,1.45
2023-03-12T16:12:17.783Z,0.55
2023-03-12T16:14:55.755Z,1.05
2023-03-12T16:20:17.745Z,1.00
2023-03-12T16:22:52.523Z,0.80
2023-03-12T16:25:19.706Z,1.30
2023-03-12T16:27:58.434Z,0.75
2023-03-12T16:30:38.168Z,1.02
2023-03-12T16:33:08.951Z,1.38
2023-03-12T16:35:46.151Z,1.27
2023-03-12T16:38:35.662Z,0.75
2023-03-12T16:41:05.806Z,0.57
2023-03-12T16:43:51.577Z,0.77
2023-03-12T16:46:20.432Z,0.77
2023-03-12T16:48:51.019Z,1.00
2023-03-12T16:51:22.266Z,1.00
2023-03-12T16:54:30.277Z,1.08
2023-03-12T16:56:57.745Z,0.60
2023-03-12T16:59:38.140Z,0.77
2023-03-12T17:02:15.892Z,0.55
2023-03-12T17:04:46.192Z,1.40
2023-03-12T17:07:25.962Z,1.92
2023-03-12T17:10:26.277Z,0.77
2023-03-12T17:13:03.265Z,1.35
2023-03-12T17:15:37.198Z,1.17
2023-03-12T17:18:20.861Z,1.40
2023-03-12T17:20:49.378Z,1.17
2023-03-12T17:23:23.235Z,1.30
2023-03-12T17:28:30.469Z,1.27
2023-03-12T17:30:57.553Z,1.00
2023-03-12T17:33:30.754Z,1.70
2023-03-12T17:36:02.705Z,1.40
2023-03-12T17:39:07.622Z,1.50
2023-03-12T17:44:41.456Z,1.42
2023-03-12T17:47:30.833Z,0.80
2023-03-12T17:49:58.380Z,1.85
2023-03-12T17:52:25.635Z,1.42
2023-03-12T17:54:55.982Z,1.58
2023-03-12T17:57:25.298Z,1.88
2023-03-12T17:59:52.604Z,2.03
2023-03-12T18:02:27.221Z,2.05
2023-03-12T18:04:54.545Z,2.10
2023-03-12T18:07:21.878Z,2.67
2023-03-12T18:10:15.347Z,2.72
2023-03-12T18:13:05.733Z,2.10
2023-03-12T18:15:39.693Z,1.98
2023-03-12T18:18:18.420Z,3.20
2023-03-12T18:20:45.883Z,2.08
2023-03-12T18:23:13.144Z,2.72
2023-03-12T18:25:54.697Z,2.13
2023-03-12T18:28:54.421Z,2.60
2023-03-12T18:32:02.349Z,2.13
2023-03-12T18:34:23.848Z,2.53
2023-03-12T18:36:56.351Z,2.15
2023-03-12T18:39:41.800Z,2.38
2023-03-12T18:43:14.098Z,2.15
2023-03-12T18:45:44.812Z,2.28
2023-03-12T18:48:11.954Z,2.25
2023-03-12T18:50:42.188Z,2.50
2023-03-12T18:53:10.411Z,2.15
2023-03-12T18:55:45.294Z,2.28
2023-03-12T18:58:13.567Z,2.38
2023-03-12T19:00:43.598Z,2.30
2023-03-12T19:03:13.268Z,2.65
2023-03-12T19:05:42.862Z,3.53
2023-03-12T19:08:16.562Z,3.05
2023-03-12T19:10:44.028Z,2.47
2023-03-12T19:13:11.225Z,2.90
2023-03-12T19:15:40.870Z,2.22
2023-03-12T19:18:08.480Z,2.45
2023-03-12T19:20:37.634Z,3.28
2023-03-12T19:23:05.363Z,2.03
2023-03-12T19:25:35.226Z,2.22
2023-03-12T19:28:02.367Z,3.10
2023-03-12T19:30:30.878Z,3.20
2023-03-12T19:33:00.265Z,2.70
2023-03-12T19:35:27.640Z,2.15
2023-03-12T19:37:54.850Z,2.17
2023-03-12T19:40:21.886Z,2.80
2023-03-12T19:42:48.831Z,2.97
2023-03-12T19:45:16.093Z,2.10
2023-03-12T19:47:43.559Z,1.92
2023-03-12T19:50:14.213Z,1.67
2023-03-12T19:52:45.224Z,1.52
2023-03-12T19:55:15.593Z,2.25
2023-03-12T19:57:42.815Z,1.60
2023-03-12T20:00:15.432Z,2.03
2023-03-12T20:02:46.245Z,1.85
2023-03-12T20:05:13.563Z,1.65
2023-03-12T20:07:44.752Z,1.85
2023-03-12T20:10:13.385Z,1.13
2023-03-12T20:12:42.958Z,0.82
2023-03-12T20:15:14.127Z,1.20
2023-03-12T20:17:41.286Z,1.30
2023-03-12T20:20:09.320Z,1.08
2023-03-12T20:22:41.706Z,1.33
2023-03-12T20:25:10.585Z,1.05
2023-03-12T20:31:17.588Z,0.90
2023-03-12T20:33:58.824Z,0.63
2023-03-12T20:37:11.599Z,0.75
2023-03-12T20:39:39.379Z,0.68
2023-03-12T20:42:06.627Z,0.68
2023-03-12T20:44:45.912Z,0.40
2023-03-12T20:47:13.178Z,1.73
2023-03-12T20:50:04.654Z,0.50
2023-03-12T20:52:32.177Z,0.30
2023-03-12T20:54:59.451Z,0.32
2023-03-12T20:57:32.535Z,0.40
2023-03-12T21:00:03.128Z,0.43
2023-03-12T21:02:32.928Z,0.30
2023-03-12T21:04:59.998Z,0.22
2023-03-12T21:07:27.071Z,0.20
2023-03-12T21:10:09.213Z,0.40
2023-03-12T21:13:57.236Z,0.60
2023-03-12T21:16:30.384Z,0.52
2023-03-12T21:19:03.206Z,0.28
2023-03-12T21:21:36.685Z,0.40
2023-03-12T21:24:07.124Z,0.40
2023-03-12T21:26:34.267Z,0.20
2023-03-12T21:29:01.378Z,0.20
2023-03-12T21:31:29.748Z,0.15
2023-03-12T21:34:03.277Z,0.30
2023-03-12T21:36:30.638Z,0.20
2023-03-12T21:38:57.966Z,0.20
2023-03-12T21:41:27.741Z,0.30
2023-03-12T21:44:05.118Z,0.40
2023-03-12T21:46:41.427Z,0.45
2023-03-12T21:49:11.712Z,0.20
2023-03-12T21:51:47.542Z,0.30
2023-03-12T21:54:17.604Z,0.30
2023-03-12T21:56:47.118Z,0.25
2023-03-12T21:59:14.256Z,0.40
2023-03-12T22:01:46.863Z,0.30
2023-03-12T22:04:14.174Z,0.40
2023-03-12T22:06:44.364Z,0.28
2023-03-12T22:09:11.524Z,0.30
2023-03-12T22:11:38.684Z,0.40
2023-03-12T22:14:05.891Z,0.57
2023-03-12T22:16:35.551Z,0.60
2023-03-12T22:19:02.696Z,0.57
2023-03-12T22:21:32.931Z,0.70
2023-03-12T22:24:00.822Z,0.35
2023-03-12T22:26:31.081Z,0.70
2023-03-12T22:28:58.446Z,0.57
2023-03-12T22:31:26.563Z,0.40
2023-03-12T22:33:53.659Z,0.50
2023-03-12T22:36:21.026Z,0.30
2023-03-12T22:38:50.847Z,0.40
2023-03-12T22:41:20.909Z,0.95
2023-03-12T22:43:50.968Z,0.40
2023-03-12T22:46:19.127Z,0.30
2023-03-12T22:48:47.044Z,0.40
2023-03-12T22:51:17.508Z,0.40
2023-03-12T22:53:45.650Z,0.43
2023-03-12T22:56:13.183Z,0.30
2023-03-12T22:58:44.722Z,0.40
2023-03-12T23:01:15.724Z,0.30
2023-03-12T23:03:43.488Z,0.20
2023-03-12T23:06:14.969Z,0.30
2023-03-12T23:08:42.061Z,0.30
2023-03-12T23:11:09.728Z,0.73
2023-03-12T23:13:37.924Z,0.30
2023-03-12T23:16:16.831Z,0.30
2023-03-12T23:18:44.675Z,0.43
2023-03-12T23:21:13.522Z,0.40
2023-03-12T23:23:42.280Z,0.32
2023-03-12T23:26:10.723Z,0.30
2023-03-12T23:28:37.597Z,0.20
2023-03-12T23:31:07.676Z,0.57
2023-03-12T23:33:34.877Z,0.80
2023-03-12T23:36:07.252Z,0.47
2023-03-12T23:38:37.702Z,0.35
2023-03-12T23:41:10.799Z,0.60
2023-03-12T23:43:58.025Z,0.45
2023-03-12T23:46:27.413Z,1.00
2023-03-12T23:48:54.534Z,0.82
2023-03-12T23:51:23.213Z,1.08
2023-03-12T23:53:51.500Z,0.98
2023-03-12T23:56:20.994Z,1.05
2023-03-12T23:58:48.143Z,0.95
